createdAt,value
2022-09-25T00:01:31.121Z,10.90
2022-09-25T00:04:01.167Z,10.90
2022-09-25T00:06:30.833Z,10.90
2022-09-25T00:08:59.623Z,10.90
2022-09-25T00:11:31.377Z,11.00
2022-09-25T00:14:01.422Z,11.00
2022-09-25T00:16:32.986Z,11.00
2022-09-25T00:19:20.237Z,11.00
2022-09-25T00:21:53.260Z,11.00
2022-09-25T00:24:22.275Z,11.00
2022-09-25T00:26:50.612Z,11.00
2022-09-25T00:29:21.506Z,11.00
2022-09-25T00:31:49.740Z,11.00
2022-09-25T00:34:19.322Z,11.00
2022-09-25T00:36:48.593Z,11.00
2022-09-25T00:39:16.708Z,11.00
2022-09-25T00:41:45.222Z,11.10
2022-09-25T00:45:01.273Z,11.00
2022-09-25T00:47:43.027Z,11.10
2022-09-25T00:50:26.038Z,11.00
2022-09-25T00:52:58.958Z,11.00
2022-09-25T00:55:27.123Z,11.00
2022-09-25T00:57:58.698Z,11.00
2022-09-25T01:00:26.817Z,11.00
2022-09-25T01:02:57.582Z,11.00
2022-09-25T01:05:33.083Z,11.10
2022-09-25T01:08:06.163Z,11.20
2022-09-25T01:10:34.339Z,11.10
2022-09-25T01:13:03.107Z,11.20
2022-09-25T01:15:43.753Z,11.30
2022-09-25T01:18:26.981Z,11.30
2022-09-25T01:21:26.266Z,11.20
2022-09-25T01:24:40.934Z,11.30
2022-09-25T01:27:34.500Z,11.30
2022-09-25T01:30:11.027Z,11.30
2022-09-25T01:32:54.678Z,11.30
2022-09-25T01:35:40.374Z,11.30
2022-09-25T01:38:23.153Z,11.40
2022-09-25T01:41:01.953Z,11.30
2022-09-25T01:43:39.086Z,11.30
2022-09-25T01:46:16.503Z,11.20
2022-09-25T01:48:51.468Z,11.20
2022-09-25T01:51:28.554Z,11.20
2022-09-25T01:54:04.043Z,11.10
2022-09-25T01:56:38.940Z,11.20
2022-09-25T01:59:15.004Z,11.20
2022-09-25T02:01:47.720Z,11.10
2022-09-25T02:04:23.350Z,11.20
2022-09-25T02:06:55.142Z,11.20
2022-09-25T02:09:33.515Z,11.20
2022-09-25T02:12:10.415Z,11.10
2022-09-25T02:14:46.546Z,11.10
2022-09-25T02:17:37.548Z,11.20
2022-09-25T02:20:24.893Z,11.10
2022-09-25T02:22:56.427Z,11.10
2022-09-25T02:25:38.590Z,11.00
2022-09-25T02:28:06.854Z,11.10
2022-09-25T02:30:35.434Z,11.00
2022-09-25T02:33:05.204Z,11.10
2022-09-25T02:35:34.349Z,11.10
2022-09-25T02:38:02.570Z,11.10
2022-09-25T02:40:41.846Z,11.00
2022-09-25T02:43:24.744Z,11.10
2022-09-25T02:46:07.435Z,11.10
2022-09-25T02:48:53.228Z,11.10
2022-09-25T02:51:32.421Z,11.10
2022-09-25T02:54:10.455Z,11.10
2022-09-25T02:56:48.353Z,11.20
2022-09-25T02:59:27.812Z,11.20
2022-09-25T03:01:59.877Z,11.30
2022-09-25T03:04:34.841Z,11.20
2022-09-25T03:07:03.762Z,11.20
2022-09-25T03:09:36.682Z,11.20
2022-09-25T03:12:06.282Z,11.20
2022-09-25T03:14:34.496Z,11.20
2022-09-25T03:17:05.846Z,11.20
2022-09-25T03:19:35.825Z,11.20
2022-09-25T03:22:04.017Z,11.20
2022-09-25T03:24:32.392Z,11.20
2022-09-25T03:27:00.496Z,11.20
2022-09-25T03:29:29.933Z,11.10
2022-09-25T03:31:57.965Z,11.10
2022-09-25T03:34:26.072Z,11.10
2022-09-25T03:36:55.494Z,11.10
2022-09-25T03:39:23.900Z,11.10
2022-09-25T03:41:52.528Z,11.10
2022-09-25T03:44:20.651Z,11.10
2022-09-25T03:46:48.762Z,11.20
2022-09-25T03:49:16.898Z,11.10
2022-09-25T03:51:45.242Z,11.10
2022-09-25T03:54:14.984Z,11.10
2022-09-25T03:56:43.089Z,11.10
2022-09-25T03:59:11.200Z,11.00
2022-09-25T04:01:40.530Z,11.10
2022-09-25T04:04:08.712Z,11.10
2022-09-25T04:06:36.830Z,11.10
2022-09-25T04:09:05.166Z,11.10
2022-09-25T04:11:34.865Z,11.10
2022-09-25T04:14:03.106Z,11.10
2022-09-25T04:16:31.501Z,11.10
2022-09-25T04:18:59.697Z,11.10
2022-09-25T04:21:28.130Z,11.10
2022-09-25T04:24:10.118Z,11.00
2022-09-25T04:26:39.641Z,11.00
2022-09-25T04:29:07.862Z,11.00
2022-09-25T04:31:36.020Z,11.00
2022-09-25T04:34:04.063Z,11.00
2022-09-25T04:36:32.326Z,10.90
2022-09-25T04:39:00.428Z,11.00
2022-09-25T04:41:28.523Z,11.00
2022-09-25T04:43:57.994Z,11.00
2022-09-25T04:46:26.187Z,11.00
2022-09-25T04:48:54.299Z,11.00
2022-09-25T04:51:22.373Z,11.00
2022-09-25T04:53:50.757Z,11.00
2022-09-25T04:56:18.815Z,11.10
2022-09-25T04:58:49.349Z,11.10
2022-09-25T05:01:21.419Z,11.10
2022-09-25T05:03:53.393Z,11.00
2022-09-25T05:06:22.499Z,11.00
2022-09-25T05:08:50.945Z,11.00
2022-09-25T05:11:19.695Z,11.00
2022-09-25T05:13:51.686Z,11.00
2022-09-25T05:16:22.049Z,11.00
2022-09-25T05:18:50.442Z,11.00
2022-09-25T05:21:18.614Z,11.10
2022-09-25T05:23:46.733Z,11.10
2022-09-25T05:26:15.118Z,11.10
2022-09-25T05:28:43.298Z,11.10
2022-09-25T05:31:11.668Z,11.10
2022-09-25T05:33:41.197Z,11.20
2022-09-25T05:36:10.277Z,11.20
2022-09-25T05:38:41.403Z,11.20
2022-09-25T05:41:11.747Z,11.20
2022-09-25T05:43:42.948Z,11.20
2022-09-25T05:46:12.776Z,11.20
2022-09-25T05:48:42.273Z,11.20
2022-09-25T05:51:11.647Z,11.30
2022-09-25T05:53:39.819Z,11.30
2022-09-25T05:56:09.068Z,11.30
2022-09-25T05:58:37.232Z,11.40
2022-09-25T06:01:07.641Z,11.60
2022-09-25T06:03:36.170Z,11.50
2022-09-25T06:06:06.460Z,11.60
2022-09-25T06:08:35.553Z,11.60
2022-09-25T06:11:05.197Z,11.70
2022-09-25T06:13:34.843Z,11.80
2022-09-25T06:16:05.420Z,11.80
2022-09-25T06:18:34.268Z,11.80
2022-09-25T06:21:06.551Z,11.80
2022-09-25T06:23:34.783Z,11.80
2022-09-25T06:26:03.860Z,11.90
2022-09-25T06:28:32.316Z,11.90
2022-09-25T06:31:02.430Z,11.80
2022-09-25T06:33:31.258Z,12.00
2022-09-25T06:36:00.670Z,12.20
2022-09-25T06:38:33.270Z,12.00
2022-09-25T06:41:01.978Z,12.10
2022-09-25T06:43:31.331Z,12.10
2022-09-25T06:46:04.021Z,12.10
2022-09-25T06:48:32.273Z,12.10
2022-09-25T06:51:02.679Z,12.20
2022-09-25T06:53:32.139Z,12.30
2022-09-25T06:56:00.872Z,12.40
2022-09-25T06:58:31.384Z,12.50
2022-09-25T07:00:59.809Z,12.60
2022-09-25T07:03:47.385Z,12.70
2022-09-25T07:06:18.890Z,12.70
2022-09-25T07:08:49.871Z,12.80
2022-09-25T07:11:20.886Z,12.80
2022-09-25T07:13:54.950Z,13.00
2022-09-25T07:16:26.061Z,13.00
2022-09-25T07:18:55.551Z,13.10
2022-09-25T07:21:25.041Z,13.20
2022-09-25T07:23:54.646Z,13.20
2022-09-25T07:26:25.735Z,13.40
2022-09-25T07:28:57.046Z,13.40
2022-09-25T07:31:28.107Z,13.50
2022-09-25T07:33:58.742Z,13.60
2022-09-25T07:36:26.926Z,13.80
2022-09-25T07:38:56.451Z,13.80
2022-09-25T07:41:25.312Z,13.80
2022-09-25T07:44:17.659Z,13.80
2022-09-25T07:46:46.386Z,13.90
2022-09-25T07:49:15.187Z,14.20
2022-09-25T07:51:43.374Z,14.50
2022-09-25T07:54:13.023Z,14.70
2022-09-25T07:56:41.330Z,14.90
2022-09-25T07:59:09.463Z,15.20
2022-09-25T08:01:43.320Z,15.50
2022-09-25T08:04:13.218Z,15.70
2022-09-25T08:06:41.455Z,16.00
2022-09-25T08:09:12.368Z,16.00
2022-09-25T08:11:40.690Z,16.20
2022-09-25T08:14:08.921Z,16.50
2022-09-25T08:16:37.045Z,16.60
2022-09-25T08:19:05.557Z,17.10
2022-09-25T08:21:35.748Z,17.50
2022-09-25T08:24:04.810Z,17.70
2022-09-25T08:26:34.449Z,17.60
2022-09-25T08:29:02.834Z,17.70
2022-09-25T08:31:31.111Z,17.60
2022-09-25T08:34:21.199Z,17.50
2022-09-25T08:36:51.058Z,17.50
2022-09-25T08:39:19.711Z,17.30
2022-09-25T08:41:53.721Z,16.90
2022-09-25T08:44:29.662Z,17.10
2022-09-25T08:47:21.157Z,17.50
2022-09-25T08:50:01.825Z,17.70
2022-09-25T08:52:32.432Z,17.60
2022-09-25T08:55:00.772Z,17.20
2022-09-25T08:57:40.335Z,17.10
2022-09-25T09:00:20.630Z,17.70
2022-09-25T09:02:54.732Z,17.90
2022-09-25T09:05:30.186Z,17.80
2022-09-25T09:08:03.527Z,17.60
2022-09-25T09:10:38.891Z,17.50
2022-09-25T09:13:28.621Z,17.80
2022-09-25T09:16:06.781Z,17.70
2022-09-25T09:18:41.919Z,17.40
2022-09-25T09:21:22.561Z,17.20
2022-09-25T09:24:03.732Z,17.00
2022-09-25T09:26:50.950Z,17.00
2022-09-25T09:29:39.242Z,17.00
2022-09-25T09:32:32.449Z,16.90
2022-09-25T09:35:19.068Z,16.90
2022-09-25T09:38:05.927Z,16.90
2022-09-25T09:40:53.963Z,17.00
2022-09-25T09:43:43.597Z,17.00
2022-09-25T09:46:28.521Z,17.20
2022-09-25T09:49:13.490Z,17.50
2022-09-25T09:51:49.195Z,17.70
2022-09-25T09:54:28.061Z,18.00
2022-09-25T09:57:00.633Z,17.90
2022-09-25T09:59:39.110Z,17.70
2022-09-25T10:02:27.703Z,17.70
2022-09-25T10:04:59.493Z,17.60
2022-09-25T10:07:32.420Z,17.70
2022-09-25T10:10:01.059Z,18.00
2022-09-25T10:12:34.603Z,18.20
2022-09-25T10:15:14.729Z,18.30
2022-09-25T10:17:44.703Z,18.30
2022-09-25T10:20:23.143Z,18.30
2022-09-25T10:22:57.313Z,18.10
2022-09-25T10:25:38.997Z,18.20
2022-09-25T10:28:28.415Z,18.30
2022-09-25T10:30:58.920Z,18.50
2022-09-25T10:33:32.864Z,18.60
2022-09-25T10:36:01.338Z,18.60
2022-09-25T10:38:42.148Z,18.50
2022-09-25T10:41:14.289Z,18.40
2022-09-25T10:43:55.003Z,18.50
2022-09-25T10:46:49.854Z,18.70
2022-09-25T10:49:38.724Z,18.70
2022-09-25T10:52:08.963Z,18.70
2022-09-25T10:54:44.482Z,18.80
2022-09-25T10:57:34.577Z,18.90
2022-09-25T11:00:05.710Z,19.00
2022-09-25T11:02:40.203Z,19.10
2022-09-25T11:05:19.884Z,19.30
2022-09-25T11:07:52.272Z,19.30
2022-09-25T11:10:23.638Z,19.50
2022-09-25T11:12:54.116Z,19.30
2022-09-25T11:15:26.718Z,19.30
2022-09-25T11:17:57.320Z,19.50
2022-09-25T11:20:30.657Z,19.20
2022-09-25T11:23:26.042Z,19.20
2022-09-25T11:26:07.169Z,19.60
2022-09-25T11:28:45.465Z,19.50
2022-09-25T11:31:22.773Z,19.50
2022-09-25T11:34:01.636Z,19.80
2022-09-25T11:36:40.991Z,20.20
2022-09-25T11:39:38.112Z,20.40
2022-09-25T11:42:15.937Z,20.50
2022-09-25T11:44:57.522Z,20.70
2022-09-25T11:47:33.248Z,20.60
2022-09-25T11:50:03.294Z,20.90
2022-09-25T11:52:41.162Z,20.90
2022-09-25T11:55:43.530Z,20.70
2022-09-25T11:58:44.415Z,20.90
2022-09-25T12:01:33.926Z,21.30
2022-09-25T12:04:47.390Z,21.70
2022-09-25T12:07:56.577Z,21.70
2022-09-25T12:10:42.980Z,21.40
2022-09-25T12:13:31.905Z,21.30
2022-09-25T12:16:14.864Z,21.50
2022-09-25T12:19:06.992Z,21.70
2022-09-25T12:21:47.839Z,21.80
2022-09-25T12:24:37.921Z,21.50
2022-09-25T12:27:20.969Z,21.80
2022-09-25T12:30:09.337Z,21.90
2022-09-25T12:33:03.988Z,21.80
2022-09-25T12:35:46.458Z,21.50
2022-09-25T12:38:29.103Z,21.20
2022-09-25T12:41:09.536Z,21.10
2022-09-25T12:43:47.975Z,21.10
2022-09-25T12:46:26.699Z,21.10
2022-09-25T12:49:03.107Z,21.10
2022-09-25T12:51:41.076Z,21.20
2022-09-25T12:54:24.904Z,21.10
2022-09-25T12:56:59.865Z,20.70
2022-09-25T12:59:41.500Z,20.60
2022-09-25T13:02:27.354Z,20.50
2022-09-25T13:05:07.150Z,20.00
2022-09-25T13:07:44.145Z,19.80
2022-09-25T13:10:32.099Z,19.90
2022-09-25T13:13:12.175Z,19.90
2022-09-25T13:15:43.245Z,20.10
2022-09-25T13:18:19.000Z,20.40
2022-09-25T13:20:54.257Z,20.30
2022-09-25T13:23:40.634Z,20.60
2022-09-25T13:26:16.332Z,21.90
2022-09-25T13:28:57.604Z,23.20
2022-09-25T13:31:29.502Z,24.90
2022-09-25T13:34:06.095Z,25.50
2022-09-25T13:36:46.790Z,25.90
2022-09-25T13:39:44.429Z,25.60
2022-09-25T13:42:23.865Z,25.30
2022-09-25T13:45:27.135Z,24.90
2022-09-25T13:48:07.174Z,23.80
2022-09-25T13:50:47.311Z,22.50
2022-09-25T13:53:49.993Z,21.70
2022-09-25T13:56:47.988Z,21.00
2022-09-25T13:59:39.568Z,20.50
2022-09-25T14:02:47.706Z,20.30
2022-09-25T14:05:21.823Z,20.00
2022-09-25T14:07:56.908Z,19.80
2022-09-25T14:10:27.172Z,19.80
2022-09-25T14:12:55.506Z,19.70
2022-09-25T14:15:33.026Z,19.60
2022-09-25T14:18:08.350Z,19.60
2022-09-25T14:20:41.936Z,19.70
2022-09-25T14:23:16.960Z,19.60
2022-09-25T14:25:46.962Z,19.70
2022-09-25T14:28:26.601Z,19.60
2022-09-25T14:31:17.307Z,19.60
2022-09-25T14:34:14.669Z,19.50
2022-09-25T14:37:03.756Z,19.40
2022-09-25T14:39:45.727Z,19.40
2022-09-25T14:42:58.364Z,19.60
2022-09-25T14:46:01.998Z,20.10
2022-09-25T14:48:38.556Z,20.70
2022-09-25T14:51:13.956Z,20.90
2022-09-25T14:53:50.540Z,20.80
2022-09-25T14:56:19.422Z,20.50
2022-09-25T14:58:51.525Z,20.10
2022-09-25T15:01:29.318Z,19.90
2022-09-25T15:04:02.743Z,19.80
2022-09-25T15:06:35.101Z,19.90
2022-09-25T15:09:28.037Z,20.60
2022-09-25T15:11:56.635Z,21.60
2022-09-25T15:14:24.706Z,21.70
2022-09-25T15:17:11.154Z,21.50
2022-09-25T15:19:45.815Z,21.00
2022-09-25T15:22:24.358Z,20.60
2022-09-25T15:24:58.300Z,20.20
2022-09-25T15:27:28.381Z,20.00
2022-09-25T15:29:58.402Z,19.70
2022-09-25T15:32:31.833Z,19.40
2022-09-25T15:35:19.412Z,19.20
2022-09-25T15:37:49.817Z,19.00
2022-09-25T15:40:28.342Z,18.80
2022-09-25T15:42:57.831Z,18.50
2022-09-25T15:45:48.450Z,18.40
2022-09-25T15:48:25.780Z,18.20
2022-09-25T15:50:55.629Z,18.10
2022-09-25T15:53:31.009Z,17.90
2022-09-25T15:56:13.730Z,17.80
2022-09-25T15:58:47.852Z,17.70
2022-09-25T16:01:39.225Z,17.60
2022-09-25T16:04:28.344Z,17.60
2022-09-25T16:06:56.529Z,17.50
2022-09-25T16:09:32.991Z,17.40
2022-09-25T16:12:23.857Z,17.30
2022-09-25T16:14:52.882Z,17.20
2022-09-25T16:17:32.975Z,17.10
2022-09-25T16:20:06.914Z,17.00
2022-09-25T16:22:47.349Z,16.90
2022-09-25T16:25:26.009Z,16.90
2022-09-25T16:28:01.337Z,16.80
2022-09-25T16:30:29.928Z,16.70
2022-09-25T16:33:06.325Z,16.60
2022-09-25T16:36:05.403Z,16.50
2022-09-25T16:38:29.950Z,16.40
2022-09-25T16:41:08.651Z,16.30
2022-09-25T16:43:39.490Z,16.20
2022-09-25T16:46:17.438Z,16.20
2022-09-25T16:49:00.981Z,16.10
2022-09-25T16:51:32.136Z,16.10
2022-09-25T16:54:01.297Z,16.00
2022-09-25T16:56:33.578Z,16.00
2022-09-25T16:59:01.808Z,15.90
2022-09-25T17:01:30.280Z,15.80
2022-09-25T17:03:59.910Z,15.80
2022-09-25T17:06:31.341Z,15.70
2022-09-25T17:31:32.001Z,14.90
2022-09-25T17:34:00.286Z,14.90
2022-09-25T17:36:28.324Z,14.80
2022-09-25T17:38:56.523Z,14.90
2022-09-25T17:41:33.407Z,14.80
2022-09-25T17:44:03.327Z,14.80
2022-09-25T17:46:34.558Z,14.80
2022-09-25T17:49:03.059Z,14.80
2022-09-25T17:51:31.877Z,14.80
2022-09-25T17:54:02.237Z,14.80
2022-09-25T17:56:31.049Z,14.80
2022-09-25T17:58:59.386Z,14.80
2022-09-25T18:01:33.138Z,14.80
2022-09-25T18:04:19.931Z,14.80
2022-09-25T18:06:48.588Z,14.80
2022-09-25T18:09:16.968Z,14.70
2022-09-25T18:11:45.305Z,14.60
2022-09-25T18:14:15.616Z,14.50
2022-09-25T18:16:45.691Z,14.50
2022-09-25T18:19:38.673Z,14.30
2022-09-25T18:22:21.462Z,14.30
2022-09-25T18:24:54.259Z,14.20
2022-09-25T18:27:22.362Z,14.10
2022-09-25T18:29:50.944Z,14.00
2022-09-25T18:32:19.078Z,14.00
2022-09-25T18:34:48.599Z,14.00
2022-09-25T18:37:16.806Z,13.90
2022-09-25T18:39:46.103Z,13.90
2022-09-25T18:42:14.204Z,13.80
2022-09-25T18:44:43.253Z,13.80
2022-09-25T18:47:12.192Z,13.70
2022-09-25T18:49:41.071Z,13.60
2022-09-25T18:52:11.456Z,13.60
2022-09-25T18:54:41.947Z,13.60
2022-09-25T18:57:10.726Z,13.60
2022-09-25T18:59:39.459Z,13.50
2022-09-25T19:02:15.191Z,13.50
2022-09-25T19:04:43.337Z,13.50
2022-09-25T19:07:12.675Z,13.50
2022-09-25T19:09:40.692Z,13.40
2022-09-25T19:12:08.976Z,13.40
2022-09-25T19:14:37.580Z,13.40
2022-09-25T19:17:06.194Z,13.40
2022-09-25T19:19:35.568Z,13.40
2022-09-25T19:22:03.623Z,13.40
2022-09-25T19:24:37.500Z,13.30
2022-09-25T19:27:06.868Z,13.30
2022-09-25T19:29:36.372Z,13.30
2022-09-25T19:32:06.275Z,13.20
2022-09-25T19:34:35.019Z,13.10
2022-09-25T19:37:04.158Z,13.10
2022-09-25T19:39:54.025Z,13.10
2022-09-25T19:42:22.249Z,13.10
2022-09-25T19:44:50.660Z,13.00
2022-09-25T19:47:18.674Z,13.00
2022-09-25T19:49:46.692Z,12.90
2022-09-25T19:52:14.668Z,12.90
2022-09-25T19:54:44.123Z,12.90
2022-09-25T19:57:12.399Z,12.90
2022-09-25T19:59:40.480Z,12.80
2022-09-25T20:02:10.649Z,12.90
2022-09-25T20:04:38.848Z,12.90
2022-09-25T20:07:06.895Z,12.90
2022-09-25T20:09:39.751Z,12.90
2022-09-25T20:12:09.495Z,12.90
2022-09-25T20:14:37.994Z,12.90
2022-09-25T20:17:10.062Z,12.90
2022-09-25T20:19:38.591Z,12.90
2022-09-25T20:22:06.674Z,12.90
2022-09-25T20:24:35.079Z,13.00
2022-09-25T20:27:03.071Z,13.10
2022-09-25T20:29:32.672Z,13.10
2022-09-25T20:32:00.854Z,13.20
2022-09-25T20:34:28.946Z,13.10
2022-09-25T20:36:57.058Z,13.20
2022-09-25T20:39:27.490Z,13.20
2022-09-25T20:41:59.133Z,13.20
2022-09-25T20:44:27.128Z,13.30
2022-09-25T20:46:56.459Z,13.30
2022-09-25T20:49:24.502Z,13.30
2022-09-25T20:51:53.345Z,13.30
2022-09-25T20:54:26.688Z,13.30
2022-09-25T20:56:54.945Z,13.30
2022-09-25T20:59:23.046Z,13.10
2022-09-25T21:01:51.220Z,13.20
2022-09-25T21:04:20.899Z,13.20
2022-09-25T21:06:48.900Z,13.20
2022-09-25T21:09:22.004Z,13.20
2022-09-25T21:11:51.269Z,13.30
2022-09-25T21:14:22.101Z,13.20
2022-09-25T21:16:51.516Z,13.20
2022-09-25T21:19:23.206Z,13.20
2022-09-25T21:21:51.893Z,13.30
2022-09-25T21:24:22.684Z,13.20
2022-09-25T21:26:51.334Z,13.30
2022-09-25T21:29:19.963Z,13.30
2022-09-25T21:31:50.636Z,13.40
2022-09-25T21:34:20.791Z,13.40
2022-09-25T21:36:49.649Z,13.30
2022-09-25T21:39:20.843Z,13.30
2022-09-25T21:41:50.299Z,13.30
2022-09-25T21:44:21.304Z,13.30
2022-09-25T21:46:49.304Z,13.30
2022-09-25T21:49:21.928Z,13.30
2022-09-25T21:51:50.911Z,13.30
2022-09-25T21:54:19.656Z,13.20
2022-09-25T21:56:48.625Z,13.20
2022-09-25T21:59:17.165Z,13.20
2022-09-25T22:01:45.455Z,13.20
2022-09-25T22:04:15.723Z,13.10
2022-09-25T22:06:47.978Z,13.10
2022-09-25T22:09:19.374Z,13.10
2022-09-25T22:11:48.966Z,13.10
2022-09-25T22:14:18.530Z,13.00
2022-09-25T22:16:49.966Z,13.10
2022-09-25T22:19:22.651Z,13.00
2022-09-25T22:21:54.568Z,12.90
2022-09-25T22:24:23.408Z,12.90
2022-09-25T22:26:53.366Z,12.90
2022-09-25T22:29:22.977Z,12.80
2022-09-25T22:31:51.721Z,12.80
2022-09-25T22:34:23.501Z,12.90
2022-09-25T22:36:59.131Z,12.90
2022-09-25T22:39:29.602Z,12.80
2022-09-25T22:41:58.224Z,12.90
2022-09-25T22:44:27.070Z,12.90
2022-09-25T22:46:55.410Z,12.80
2022-09-25T22:49:23.651Z,12.80
2022-09-25T22:51:53.050Z,12.80
2022-09-25T22:54:21.574Z,12.80
2022-09-25T22:56:49.602Z,12.80
2022-09-25T22:59:18.814Z,12.80
2022-09-25T23:01:50.907Z,12.70
2022-09-25T23:04:22.033Z,12.70
2022-09-25T23:06:52.272Z,12.70
2022-09-25T23:09:24.898Z,12.60
2022-09-25T23:11:54.152Z,12.70
2022-09-25T23:14:26.249Z,12.70
2022-09-25T23:16:56.016Z,12.70
2022-09-25T23:19:25.195Z,12.60
2022-09-25T23:21:55.706Z,12.60
2022-09-25T23:24:24.684Z,12.60
2022-09-25T23:26:54.998Z,12.70
2022-09-25T23:29:23.877Z,12.70
2022-09-25T23:31:53.118Z,12.70
2022-09-25T23:34:21.372Z,12.60
2022-09-25T23:36:49.493Z,12.50
2022-09-25T23:39:21.011Z,12.40
2022-09-25T23:41:49.427Z,12.50
2022-09-25T23:44:17.852Z,12.50
2022-09-25T23:46:46.309Z,12.60
2022-09-25T23:49:15.408Z,12.60
2022-09-25T23:51:43.515Z,12.60
2022-09-25T23:54:12.879Z,12.60
2022-09-25T23:56:42.670Z,12.70
2022-09-25T23:59:13.460Z,12.70
